createdAt,value
2018-10-15T00:00:18.658Z,8.80
2018-10-15T00:02:47.127Z,8.33
2018-10-15T00:05:16.001Z,7.93
2018-10-15T00:07:44.996Z,8.10
2018-10-15T00:10:13.977Z,8.33
2018-10-15T00:12:42.675Z,8.37
2018-10-15T00:15:21.803Z,7.97
2018-10-15T00:17:50.994Z,8.80
2018-10-15T00:20:20.290Z,7.87
2018-10-15T00:28:12.918Z,8.37
2018-10-15T00:30:41.581Z,9.10
2018-10-15T00:33:10.438Z,8.85
2018-10-15T00:35:39.417Z,8.70
2018-10-15T00:38:08.501Z,8.20
2018-10-15T00:40:37.607Z,8.90
2018-10-15T00:43:06.418Z,9.13
2018-10-15T00:45:35.052Z,8.73
2018-10-15T00:48:03.771Z,7.90
2018-10-15T00:50:32.378Z,8.80
2018-10-15T00:53:00.872Z,8.73
2018-10-15T00:55:29.384Z,8.70
2018-10-15T00:57:58.174Z,8.67
2018-10-15T01:00:27.180Z,9.13
2018-10-15T01:02:55.953Z,8.63
2018-10-15T01:05:24.674Z,9.30
2018-10-15T01:07:53.549Z,9.40
2018-10-15T01:10:22.585Z,9.67
2018-10-15T01:12:51.774Z,8.90
2018-10-15T01:15:20.628Z,8.50
2018-10-15T01:17:49.607Z,8.13
2018-10-15T01:20:18.375Z,8.60
2018-10-15T01:22:47.388Z,8.67
2018-10-15T01:25:16.326Z,8.13
2018-10-15T01:27:45.085Z,7.97
2018-10-15T01:30:13.898Z,8.60
2018-10-15T01:32:42.939Z,8.53
2018-10-15T01:35:11.971Z,9.13
2018-10-15T01:37:40.930Z,8.38
2018-10-15T01:40:14.193Z,8.00
2018-10-15T01:42:42.744Z,9.20
2018-10-15T01:45:11.514Z,8.20
2018-10-15T01:47:40.302Z,9.05
2018-10-15T01:50:10.222Z,8.80
2018-10-15T01:52:39.069Z,8.20
2018-10-15T01:55:08.087Z,8.53
2018-10-15T01:57:36.918Z,8.57
2018-10-15T02:00:07.056Z,8.33
2018-10-15T02:02:35.855Z,8.30
2018-10-15T02:05:04.856Z,7.97
2018-10-15T02:07:33.757Z,7.23
2018-10-15T02:10:03.081Z,7.70
2018-10-15T02:12:32.264Z,8.03
2018-10-15T02:15:00.999Z,8.70
2018-10-15T02:17:29.839Z,8.70
2018-10-15T02:19:58.562Z,7.63
2018-10-15T02:22:29.777Z,7.80
2018-10-15T02:24:59.373Z,8.47
2018-10-15T02:27:28.822Z,8.30
2018-10-15T02:29:57.691Z,8.50
2018-10-15T02:32:26.898Z,7.63
2018-10-15T02:34:55.984Z,8.90
2018-10-15T02:37:24.852Z,8.03
2018-10-15T02:39:53.871Z,8.53
2018-10-15T02:42:22.657Z,8.77
2018-10-15T02:44:51.294Z,8.03
2018-10-15T02:47:20.029Z,8.50
2018-10-15T02:49:48.888Z,8.90
2018-10-15T02:52:17.720Z,9.18
2018-10-15T02:54:46.599Z,8.40
2018-10-15T02:57:15.263Z,7.80
2018-10-15T02:59:44.109Z,9.30
2018-10-15T03:02:12.894Z,8.78
2018-10-15T03:04:41.854Z,8.30
2018-10-15T03:07:10.960Z,8.45
2018-10-15T03:09:40.000Z,7.57
2018-10-15T03:12:08.928Z,8.80
2018-10-15T03:14:38.679Z,7.80
2018-10-15T03:17:09.307Z,8.70
2018-10-15T03:19:38.631Z,8.50
2018-10-15T03:22:07.685Z,8.80
2018-10-15T03:24:36.891Z,9.27
2018-10-15T03:27:06.157Z,8.30
2018-10-15T03:29:38.984Z,8.60
2018-10-15T03:32:08.164Z,8.40
2018-10-15T03:34:36.714Z,9.45
2018-10-15T03:37:06.680Z,9.20
2018-10-15T03:39:35.547Z,8.30
2018-10-15T03:42:04.519Z,8.30
2018-10-15T03:44:33.086Z,8.03
2018-10-15T03:47:02.114Z,8.33
2018-10-15T03:49:31.112Z,8.27
2018-10-15T03:52:00.177Z,9.10
2018-10-15T03:54:29.450Z,8.60
2018-10-15T03:56:58.412Z,8.53
2018-10-15T03:59:27.185Z,8.67
2018-10-15T04:01:56.131Z,9.10
2018-10-15T04:04:25.151Z,8.60
2018-10-15T04:06:54.357Z,8.90
2018-10-15T04:09:23.783Z,9.03
2018-10-15T04:11:53.028Z,15.13
2018-10-15T04:14:22.596Z,7.83
2018-10-15T04:16:51.743Z,8.10
2018-10-15T04:19:20.681Z,8.80
2018-10-15T04:21:50.954Z,8.20
2018-10-15T04:24:19.710Z,8.63
2018-10-15T04:26:48.600Z,8.83
2018-10-15T04:29:17.555Z,8.50
2018-10-15T04:31:46.885Z,9.30
2018-10-15T04:34:15.708Z,8.93
2018-10-15T04:36:44.583Z,9.43
2018-10-15T04:39:13.497Z,9.37
2018-10-15T04:41:42.453Z,8.70
2018-10-15T04:44:11.676Z,9.80
2018-10-15T04:46:41.057Z,8.97
2018-10-15T04:49:10.258Z,9.53
2018-10-15T04:51:39.114Z,10.27
2018-10-15T04:54:08.249Z,10.47
2018-10-15T04:56:37.961Z,9.70
2018-10-15T04:59:07.191Z,10.20
2018-10-15T05:01:36.205Z,10.80
2018-10-15T05:04:06.451Z,11.57
2018-10-15T05:06:35.723Z,10.83
2018-10-15T05:09:06.582Z,10.93
2018-10-15T05:11:35.710Z,10.80
2018-10-15T05:14:04.985Z,11.22
2018-10-15T05:16:33.734Z,12.40
2018-10-15T05:19:02.769Z,11.13
2018-10-15T05:21:31.757Z,10.55
2018-10-15T05:24:00.914Z,11.73
2018-10-15T05:26:30.442Z,11.27
2018-10-15T05:28:59.543Z,9.07
2018-10-15T05:31:28.559Z,10.53
2018-10-15T05:33:57.086Z,8.70
2018-10-15T05:36:25.602Z,9.28
2018-10-15T05:38:55.134Z,9.80
2018-10-15T05:41:24.421Z,9.58
2018-10-15T05:43:53.597Z,9.27
2018-10-15T05:46:22.764Z,9.10
2018-10-15T05:48:52.326Z,9.30
2018-10-15T05:51:21.311Z,9.10
2018-10-15T05:53:51.090Z,9.43
2018-10-15T05:56:20.570Z,10.17
2018-10-15T05:58:53.884Z,9.50
2018-10-15T06:01:23.178Z,10.30
2018-10-15T06:03:53.696Z,10.80
2018-10-15T06:06:22.697Z,11.60
2018-10-15T06:08:52.049Z,10.23
2018-10-15T06:11:21.877Z,12.05
2018-10-15T06:13:50.743Z,11.25
2018-10-15T06:16:38.042Z,12.00
2018-10-15T06:31:18.350Z,11.27
2018-10-15T06:40:10.070Z,11.30
2018-10-15T06:42:40.575Z,11.07
2018-10-15T06:45:17.421Z,10.97
2018-10-15T06:47:51.014Z,11.07
2018-10-15T06:50:20.186Z,11.47
2018-10-15T06:52:49.334Z,11.07
2018-10-15T06:55:18.680Z,12.40
2018-10-15T06:57:47.909Z,12.20
2018-10-15T07:00:17.814Z,12.73
2018-10-15T07:02:46.925Z,13.53
2018-10-15T07:05:15.753Z,12.67
2018-10-15T07:07:45.004Z,13.80
2018-10-15T07:10:14.581Z,12.60
2018-10-15T07:12:44.006Z,12.60
2018-10-15T07:15:13.529Z,12.63
2018-10-15T07:17:43.461Z,11.40
2018-10-15T07:20:12.381Z,12.23
2018-10-15T07:22:44.009Z,12.17
2018-10-15T07:25:27.051Z,11.23
2018-10-15T07:27:56.457Z,11.03
2018-10-15T07:30:26.736Z,11.10
2018-10-15T07:32:55.707Z,11.57
2018-10-15T07:35:24.871Z,10.90
2018-10-15T07:37:54.266Z,10.90
2018-10-15T07:40:23.495Z,11.97
2018-10-15T07:42:53.259Z,10.43
2018-10-15T07:45:24.790Z,10.87
2018-10-15T07:48:01.341Z,11.67
2018-10-15T07:50:31.150Z,11.10
2018-10-15T07:53:03.804Z,11.20
2018-10-15T07:55:33.225Z,10.37
2018-10-15T07:58:02.872Z,9.80
2018-10-15T08:00:34.553Z,11.15
2018-10-15T08:03:03.587Z,11.53
2018-10-15T08:05:32.614Z,11.47
2018-10-15T08:08:01.945Z,10.60
2018-10-15T08:10:35.672Z,14.40
2018-10-15T08:13:05.729Z,10.60
2018-10-15T08:15:35.721Z,11.07
2018-10-15T08:18:04.947Z,11.17
2018-10-15T08:20:34.283Z,11.57
2018-10-15T08:23:03.590Z,11.60
2018-10-15T08:25:32.867Z,10.80
2018-10-15T08:28:01.894Z,12.77
2018-10-15T08:30:30.912Z,12.80
2018-10-15T08:32:59.822Z,10.35
2018-10-15T08:35:28.925Z,9.50
2018-10-15T08:37:57.882Z,11.07
2018-10-15T08:40:27.215Z,11.07
2018-10-15T08:42:57.030Z,11.12
2018-10-15T08:45:26.187Z,10.63
2018-10-15T08:47:55.692Z,10.50
2018-10-15T08:50:25.266Z,10.35
2018-10-15T08:52:54.524Z,10.27
2018-10-15T08:55:24.157Z,10.73
2018-10-15T08:57:53.376Z,10.00
2018-10-15T09:00:24.293Z,9.37
2018-10-15T09:02:53.348Z,9.63
2018-10-15T09:05:22.444Z,11.50
2018-10-15T09:07:52.007Z,10.57
2018-10-15T09:10:21.207Z,10.63
2018-10-15T09:12:50.052Z,9.67
2018-10-15T09:15:21.250Z,9.68
2018-10-15T09:17:50.424Z,9.60
2018-10-15T09:20:19.628Z,9.27
2018-10-15T09:22:48.280Z,9.70
2018-10-15T09:25:18.352Z,9.10
2018-10-15T09:27:47.556Z,10.20
2018-10-15T09:30:18.544Z,10.33
2018-10-15T09:32:47.771Z,9.07
2018-10-15T09:35:18.269Z,9.23
2018-10-15T09:37:47.432Z,10.70
2018-10-15T09:40:18.102Z,9.90
2018-10-15T09:42:47.932Z,9.53
2018-10-15T09:45:19.112Z,8.90
2018-10-15T09:47:49.429Z,9.80
2018-10-15T09:50:19.729Z,10.53
2018-10-15T09:52:49.229Z,9.43
2018-10-15T09:55:18.435Z,9.63
2018-10-15T09:57:47.785Z,9.00
2018-10-15T10:00:22.275Z,8.93
2018-10-15T10:02:54.981Z,10.00
2018-10-15T10:05:25.701Z,9.10
2018-10-15T10:07:55.224Z,9.03
2018-10-15T10:10:28.516Z,9.30
2018-10-15T10:12:58.669Z,9.40
2018-10-15T10:15:28.024Z,8.90
2018-10-15T10:17:58.406Z,8.80
2018-10-15T10:20:27.663Z,9.40
2018-10-15T10:22:58.433Z,9.03
2018-10-15T10:25:27.547Z,9.70
2018-10-15T10:27:56.615Z,9.07
2018-10-15T10:30:25.343Z,10.10
2018-10-15T10:32:54.263Z,9.97
2018-10-15T10:35:53.041Z,9.13
2018-10-15T10:38:34.361Z,9.87
2018-10-15T10:41:07.269Z,10.17
2018-10-15T10:43:36.760Z,10.73
2018-10-15T10:46:08.309Z,9.90
2018-10-15T10:48:40.099Z,9.60
2018-10-15T10:51:11.587Z,9.60
2018-10-15T10:53:41.358Z,9.77
2018-10-15T10:56:10.900Z,11.03
2018-10-15T10:58:42.120Z,9.53
2018-10-15T11:01:11.470Z,10.07
2018-10-15T11:03:41.341Z,9.30
2018-10-15T11:06:10.466Z,10.47
2018-10-15T11:08:40.079Z,10.73
2018-10-15T11:11:10.473Z,9.47
2018-10-15T11:13:40.481Z,8.80
2018-10-15T11:16:09.845Z,9.25
2018-10-15T11:18:39.422Z,8.53
2018-10-15T11:21:08.089Z,9.40
2018-10-15T11:23:36.991Z,8.37
2018-10-15T11:26:06.317Z,8.37
2018-10-15T11:28:35.604Z,7.87
2018-10-15T11:31:04.621Z,8.03
2018-10-15T11:33:34.136Z,8.80
2018-10-15T11:36:07.075Z,7.90
2018-10-15T11:38:36.822Z,7.57
2018-10-15T11:41:06.572Z,8.00
2018-10-15T11:43:36.218Z,8.27
2018-10-15T11:46:10.071Z,6.60
2018-10-15T12:03:05.971Z,7.97
2018-10-15T12:05:35.825Z,7.97
2018-10-15T12:08:09.479Z,8.00
2018-10-15T12:10:39.148Z,7.58
2018-10-15T12:13:12.345Z,7.13
2018-10-15T12:15:41.590Z,7.73
2018-10-15T12:18:10.658Z,6.87
2018-10-15T12:20:39.881Z,7.85
2018-10-15T12:23:09.330Z,7.60
2018-10-15T12:25:38.582Z,6.83
2018-10-15T12:28:07.778Z,7.33
2018-10-15T12:30:37.148Z,7.87
2018-10-15T12:33:06.791Z,7.50
2018-10-15T12:35:35.972Z,6.30
2018-10-15T12:38:05.343Z,6.80
2018-10-15T12:40:34.597Z,6.80
2018-10-15T12:43:03.879Z,7.20
2018-10-15T12:45:38.244Z,7.57
2018-10-15T12:48:08.443Z,7.20
2018-10-15T12:50:37.854Z,7.30
2018-10-15T12:53:07.040Z,7.53
2018-10-15T12:55:36.136Z,7.53
2018-10-15T12:58:05.668Z,6.60
2018-10-15T13:00:35.072Z,7.20
2018-10-15T13:03:09.712Z,7.15
2018-10-15T13:05:38.652Z,7.40
2018-10-15T13:08:07.747Z,7.70
2018-10-15T13:10:38.984Z,7.43
2018-10-15T13:13:08.903Z,7.00
2018-10-15T13:15:40.111Z,6.20
2018-10-15T13:18:14.062Z,6.90
2018-10-15T13:20:43.360Z,6.97
2018-10-15T13:23:16.029Z,7.67
2018-10-15T13:25:54.128Z,6.97
2018-10-15T13:28:24.305Z,7.47
2018-10-15T13:30:53.954Z,7.30
2018-10-15T13:33:23.165Z,7.10
2018-10-15T13:35:52.369Z,6.93
2018-10-15T13:38:21.650Z,6.60
2018-10-15T13:40:50.867Z,7.40
2018-10-15T13:43:21.053Z,6.67
2018-10-15T13:45:51.389Z,7.30
2018-10-15T13:48:23.092Z,7.73
2018-10-15T13:50:53.984Z,7.00
2018-10-15T13:53:23.631Z,7.65
2018-10-15T13:55:53.821Z,7.13
2018-10-15T13:58:25.218Z,7.40
2018-10-15T14:00:54.640Z,6.17
2018-10-15T14:03:24.232Z,6.70
2018-10-15T14:05:58.211Z,7.23
2018-10-15T14:08:27.663Z,7.00
2018-10-15T14:10:56.627Z,6.60
2018-10-15T14:13:49.317Z,7.33
2018-10-15T14:16:18.885Z,7.70
2018-10-15T14:18:48.508Z,7.35
2018-10-15T14:21:17.711Z,7.43
2018-10-15T14:23:47.572Z,7.60
2018-10-15T14:26:16.633Z,7.07
2018-10-15T14:28:45.840Z,6.97
2018-10-15T14:31:17.776Z,6.30
2018-10-15T14:33:46.520Z,6.60
2018-10-15T14:36:15.405Z,6.17
2018-10-15T14:38:47.896Z,6.77
2018-10-15T14:41:17.766Z,6.30
2018-10-15T14:43:46.972Z,7.12
2018-10-15T14:46:16.181Z,6.63
2018-10-15T14:48:46.941Z,6.30
2018-10-15T14:51:16.160Z,6.33
2018-10-15T14:53:45.232Z,6.35
2018-10-15T14:56:14.168Z,6.43
2018-10-15T14:58:43.678Z,6.23
2018-10-15T15:01:12.566Z,6.00
2018-10-15T15:03:41.820Z,5.77
2018-10-15T15:06:10.931Z,5.77
2018-10-15T15:08:41.012Z,6.03
2018-10-15T15:11:21.683Z,6.40
2018-10-15T15:14:03.670Z,5.57
2018-10-15T15:16:35.966Z,5.57
2018-10-15T15:19:05.882Z,5.60
2018-10-15T15:21:35.782Z,8.33
2018-10-15T15:24:04.719Z,5.83
2018-10-15T15:26:33.630Z,6.03
2018-10-15T15:29:02.694Z,5.50
2018-10-15T15:31:32.052Z,5.70
2018-10-15T15:34:01.454Z,6.33
2018-10-15T15:36:31.120Z,6.70
2018-10-15T15:39:00.010Z,5.90
2018-10-15T15:41:29.413Z,5.83
2018-10-15T15:43:58.516Z,5.97
2018-10-15T15:46:31.304Z,5.77
2018-10-15T15:49:09.052Z,5.87
2018-10-15T15:51:38.116Z,6.07
2018-10-15T15:54:07.257Z,5.90
2018-10-15T15:56:36.840Z,7.00
2018-10-15T15:59:06.146Z,5.90
2018-10-15T16:01:37.579Z,5.63
2018-10-15T16:04:08.218Z,6.60
2018-10-15T16:06:37.537Z,6.63
2018-10-15T16:09:10.436Z,6.07
2018-10-15T16:11:41.083Z,8.20
2018-10-15T16:17:03.319Z,7.53
2018-10-15T16:19:36.704Z,8.03
2018-10-15T16:22:12.524Z,6.70
2018-10-15T16:24:45.554Z,8.47
2018-10-15T16:27:14.844Z,7.27
2018-10-15T16:29:44.025Z,7.60
2018-10-15T16:32:13.132Z,7.53
2018-10-15T16:34:42.351Z,8.60
2018-10-15T16:37:11.315Z,7.70
2018-10-15T16:39:40.822Z,7.73
2018-10-15T16:42:10.544Z,8.53
2018-10-15T16:44:40.429Z,7.37
2018-10-15T16:47:10.677Z,8.27
2018-10-15T16:49:40.477Z,7.20
2018-10-15T16:52:09.906Z,8.30
2018-10-15T16:54:38.616Z,8.70
2018-10-15T16:57:23.224Z,8.77
2018-10-15T17:05:43.073Z,7.93
2018-10-15T17:08:12.649Z,8.00
2018-10-15T17:10:42.045Z,7.75
2018-10-15T17:13:11.471Z,8.57
2018-10-15T17:15:40.249Z,8.47
2018-10-15T17:18:09.510Z,8.33
2018-10-15T17:20:38.840Z,7.77
2018-10-15T17:23:08.088Z,8.55
2018-10-15T17:25:36.881Z,8.50
2018-10-15T17:28:06.434Z,11.10
2018-10-15T17:30:35.284Z,9.80
2018-10-15T17:33:04.214Z,8.30
2018-10-15T17:35:33.399Z,9.20
2018-10-15T17:38:02.824Z,8.97
2018-10-15T17:40:31.951Z,10.90
2018-10-15T17:43:01.300Z,8.50
2018-10-15T17:48:31.823Z,9.73
2018-10-15T17:51:02.088Z,8.63
2018-10-15T17:53:32.110Z,8.50
2018-10-15T17:56:11.346Z,11.37
2018-10-15T17:58:41.701Z,11.18
2018-10-15T18:01:12.084Z,11.17
2018-10-15T18:03:42.904Z,10.40
2018-10-15T18:06:13.769Z,9.03
2018-10-15T18:08:42.909Z,10.27
2018-10-15T18:11:11.642Z,9.40
2018-10-15T18:13:40.379Z,12.20
2018-10-15T18:16:09.598Z,10.33
2018-10-15T18:18:38.557Z,9.10
2018-10-15T18:21:07.921Z,10.57
2018-10-15T18:23:39.154Z,9.30
2018-10-15T18:26:09.020Z,9.20
2018-10-15T18:28:39.497Z,8.33
2018-10-15T18:31:08.586Z,9.40
2018-10-15T18:33:37.501Z,9.50
2018-10-15T18:36:06.648Z,8.70
2018-10-15T18:38:36.004Z,8.97
2018-10-15T18:41:05.938Z,9.40
2018-10-15T18:43:35.379Z,9.33
2018-10-15T18:46:04.692Z,10.03
2018-10-15T18:48:33.723Z,10.57
2018-10-15T18:51:02.618Z,11.40
2018-10-15T18:53:31.893Z,10.20
2018-10-15T18:56:00.762Z,12.80
2018-10-15T18:58:29.814Z,10.93
2018-10-15T19:00:58.822Z,11.30
2018-10-15T19:03:27.893Z,12.10
2018-10-15T19:05:56.823Z,10.65
2018-10-15T19:08:25.436Z,10.70
2018-10-15T19:10:54.587Z,10.83
2018-10-15T19:13:23.626Z,11.60
2018-10-15T19:15:52.493Z,10.67
2018-10-15T19:18:21.135Z,10.63
2018-10-15T19:20:50.174Z,12.63
2018-10-15T19:23:19.182Z,13.60
2018-10-15T19:25:48.090Z,14.17
2018-10-15T19:28:16.748Z,14.27
2018-10-15T19:30:45.940Z,14.20
2018-10-15T19:33:16.329Z,15.90
2018-10-15T19:35:49.672Z,12.70
2018-10-15T19:38:19.029Z,14.27
2018-10-15T19:40:48.167Z,17.10
2018-10-15T19:43:17.437Z,17.20
2018-10-15T19:45:46.326Z,15.97
2018-10-15T19:48:16.063Z,14.30
2018-10-15T19:50:45.565Z,15.17
2018-10-15T19:53:14.740Z,13.80
2018-10-15T19:55:46.608Z,14.73
2018-10-15T19:58:15.813Z,13.60
2018-10-15T20:00:44.638Z,12.63
2018-10-15T20:03:13.632Z,12.70
2018-10-15T20:05:42.279Z,13.40
2018-10-15T20:08:12.104Z,14.10
2018-10-15T20:10:40.721Z,12.90
2018-10-15T20:13:09.685Z,13.33
2018-10-15T20:15:38.985Z,13.73
2018-10-15T20:18:08.298Z,13.47
2018-10-15T20:20:39.380Z,12.73
2018-10-15T20:23:08.810Z,14.00
2018-10-15T20:25:37.551Z,13.40
2018-10-15T20:28:06.805Z,13.03
2018-10-15T20:30:36.021Z,13.35
2018-10-15T20:33:05.082Z,12.00
2018-10-15T20:35:34.603Z,12.50
2018-10-15T20:38:03.325Z,12.80
2018-10-15T20:40:32.813Z,11.55
2018-10-15T20:43:01.943Z,12.00
2018-10-15T20:45:30.827Z,10.73
2018-10-15T20:47:59.803Z,10.83
2018-10-15T20:50:30.638Z,10.30
2018-10-15T20:52:59.645Z,11.40
2018-10-15T20:55:28.614Z,13.00
2018-10-15T20:57:57.371Z,12.53
2018-10-15T21:00:26.340Z,11.57
2018-10-15T21:02:55.193Z,12.13
2018-10-15T21:05:24.345Z,11.03
2018-10-15T21:07:53.030Z,11.80
2018-10-15T21:10:22.205Z,12.47
2018-10-15T21:12:51.088Z,11.83
2018-10-15T21:15:20.139Z,10.43
2018-10-15T21:17:49.037Z,11.10
2018-10-15T21:20:17.881Z,11.57
2018-10-15T21:22:46.956Z,10.90
2018-10-15T21:25:16.820Z,11.23
2018-10-15T21:27:45.407Z,11.17
2018-10-15T21:30:14.606Z,11.50
2018-10-15T21:32:43.620Z,11.13
2018-10-15T21:35:12.718Z,10.73
2018-10-15T21:37:41.393Z,11.20
2018-10-15T21:40:10.501Z,11.87
2018-10-15T21:42:39.776Z,12.10
2018-10-15T21:45:09.544Z,11.50
2018-10-15T21:47:39.010Z,11.37
2018-10-15T21:50:09.688Z,11.70
2018-10-15T21:52:41.230Z,12.30
2018-10-15T21:55:11.174Z,10.18
2018-10-15T21:57:39.922Z,11.40
2018-10-15T22:00:15.278Z,10.97
2018-10-15T22:02:44.289Z,11.57
2018-10-15T22:05:13.215Z,11.70
2018-10-15T22:07:42.271Z,11.00
2018-10-15T22:10:16.348Z,11.63
2018-10-15T22:12:45.089Z,11.33
2018-10-15T22:15:15.297Z,10.90
2018-10-15T22:17:43.861Z,11.57
2018-10-15T22:20:13.205Z,11.10
2018-10-15T22:22:42.123Z,10.70
2018-10-15T22:25:11.558Z,11.03
2018-10-15T22:27:47.808Z,10.63
2018-10-15T22:30:16.788Z,11.60
2018-10-15T22:32:45.711Z,10.67
2018-10-15T22:35:14.854Z,12.23
2018-10-15T22:37:43.792Z,11.30
2018-10-15T22:40:12.435Z,11.20
2018-10-15T22:42:41.453Z,10.07
2018-10-15T22:45:11.859Z,10.33
2018-10-15T22:47:41.963Z,10.43
2018-10-15T22:50:10.676Z,11.10
2018-10-15T22:52:39.668Z,10.73
2018-10-15T22:55:09.110Z,10.60
2018-10-15T22:57:37.960Z,10.90
2018-10-15T23:00:08.626Z,10.53
2018-10-15T23:02:37.561Z,12.10
2018-10-15T23:05:06.912Z,10.83
2018-10-15T23:07:35.824Z,10.70
2018-10-15T23:10:04.882Z,11.23
2018-10-15T23:12:33.725Z,10.40
2018-10-15T23:15:02.401Z,10.53
2018-10-15T23:17:31.845Z,10.67
2018-10-15T23:20:00.588Z,10.53
2018-10-15T23:22:29.300Z,10.60
2018-10-15T23:24:57.876Z,9.73
2018-10-15T23:27:26.770Z,10.97
2018-10-15T23:29:55.635Z,10.63
2018-10-15T23:32:24.319Z,11.00
2018-10-15T23:34:53.419Z,10.57
2018-10-15T23:37:22.262Z,10.80
2018-10-15T23:39:50.973Z,12.00
2018-10-15T23:42:21.285Z,10.57
2018-10-15T23:44:50.270Z,9.83
2018-10-15T23:47:19.089Z,11.03
2018-10-15T23:49:47.518Z,10.37
2018-10-15T23:52:16.358Z,10.70
2018-10-15T23:54:45.010Z,10.57
2018-10-15T23:57:13.826Z,11.60
2018-10-15T23:59:42.678Z,10.47
